Time;durP1;ratioP1;P1;durP2;ratioP2;P2;SDS_P1;SDS_P2;PMS_P1;PMS_P2;Temp;Humidity;BMP_temperature;BMP_pressure;BME280_temperature;BME280_humidity;BME280_pressure;Samples;Min_cycle;Max_cycle;Signal;HPM_P1;HPM_P2
2023/07/14 00:03:38;;;;;;;0.93;0.85;;;;;;;16.54;48.48;100171.44;10428025;28;20051;-59
2023/07/14 00:08:40;;;;;;;3.40;1.27;;;;;;;16.47;48.48;100170.22;10429620;28;20045;-58
2023/07/14 00:13:42;;;;;;;7.00;1.38;;;;;;;16.56;48.71;100169.50;10425768;28;20067;-58
2023/07/14 00:18:44;;;;;;;1.30;1.20;;;;;;;16.67;48.46;100161.53;10427656;28;20144;-58
2023/07/14 00:23:46;;;;;;;4.30;0.93;;;;;;;16.62;48.72;100157.59;10424583;28;20806;-58
2023/07/14 00:28:49;;;;;;;2.83;1.17;;;;;;;16.39;49.01;100151.50;10428909;28;20386;-58
2023/07/14 00:33:54;;;;;;;2.20;1.10;;;;;;;16.30;49.76;100160.16;10420401;28;20481;-58
2023/07/14 00:38:56;;;;;;;1.20;1.00;;;;;;;16.13;49.64;100145.66;10427312;28;20136;-58
2023/07/14 00:43:58;;;;;;;1.75;0.90;;;;;;;15.83;50.45;100149.88;10426708;28;20497;-58
2023/07/14 00:49:05;;;;;;;2.13;1.02;;;;;;;16.03;50.72;100149.16;10424923;28;20041;-58
2023/07/14 00:54:24;;;;;;;2.38;1.17;;;;;;;16.12;51.83;100146.59;10424524;28;20118;-58
2023/07/14 00:59:34;;;;;;;1.23;0.90;;;;;;;16.08;50.29;100153.09;10426497;28;20075;-58
2023/07/14 01:04:41;;;;;;;2.97;0.95;;;;;;;15.93;50.63;100164.03;10423950;28;20067;-58
2023/07/14 01:09:45;;;;;;;1.95;0.93;;;;;;;15.81;50.87;100160.53;10422498;28;20132;-58
2023/07/14 01:14:52;;;;;;;4.70;0.95;;;;;;;15.76;51.42;100161.84;10423919;28;20065;-58
2023/07/14 01:19:59;;;;;;;1.75;1.10;;;;;;;15.72;51.26;100158.59;10423110;28;20102;-58
2023/07/14 01:25:16;;;;;;;2.65;1.13;;;;;;;15.59;52.95;100154.41;10424128;28;20466;-58
2023/07/14 01:30:20;;;;;;;0.93;0.77;;;;;;;15.02;52.61;100159.63;10424214;28;20088;-58
2023/07/14 01:35:36;;;;;;;2.80;1.40;;;;;;;15.27;53.48;100155.03;10424312;28;20052;-58
2023/07/14 01:40:40;;;;;;;1.67;1.13;;;;;;;15.24;52.10;100152.63;10426344;28;20171;-58
2023/07/14 01:45:52;;;;;;;2.70;0.90;;;;;;;15.30;53.01;100151.31;10423591;28;20083;-58
2023/07/14 01:50:59;;;;;;;2.22;1.10;;;;;;;15.16;52.52;100147.06;10431902;28;20045;-58
2023/07/14 01:56:06;;;;;;;1.33;0.98;;;;;;;15.12;52.84;100147.44;10434884;28;20060;-58
2023/07/14 02:01:10;;;;;;;1.35;0.93;;;;;;;15.22;52.87;100162.44;10408695;28;20060;-58
2023/07/14 02:06:13;;;;;;;1.10;0.90;;;;;;;15.21;52.72;100149.38;10438930;28;20036;-58
2023/07/14 02:11:23;;;;;;;1.35;1.00;;;;;;;15.17;53.44;100140.88;10422606;28;20204;-58
2023/07/14 02:16:26;;;;;;;1.08;0.90;;;;;;;15.17;52.74;100138.22;10437834;28;20461;-58
2023/07/14 02:21:30;;;;;;;1.65;0.90;;;;;;;15.13;53.01;100147.31;10435331;28;20056;-58
2023/07/14 02:26:36;;;;;;;3.03;0.95;;;;;;;15.13;52.96;100157.00;10440295;28;20053;-58
2023/07/14 02:31:47;;;;;;;2.97;1.00;;;;;;;14.95;53.85;100153.97;10435327;28;20537;-58
2023/07/14 02:37:03;;;;;;;1.40;1.00;;;;;;;14.50;54.49;100152.91;10439976;28;20475;-58
2023/07/14 02:42:06;;;;;;;1.30;0.90;;;;;;;14.33;54.46;100153.22;10436803;28;20041;-58
2023/07/14 02:47:20;;;;;;;1.65;1.08;;;;;;;14.50;55.36;100147.66;10438820;28;20513;-57
2023/07/14 02:52:22;;;;;;;1.65;1.27;;;;;;;14.71;54.07;100147.03;10406451;28;20125;-58
2023/07/14 02:57:24;;;;;;;0.80;0.80;;;;;;;14.92;53.91;100156.00;10437125;28;20061;-58
2023/07/14 03:02:26;;;;;;;2.00;1.30;;;;;;;15.00;53.54;100148.34;10433401;28;20075;-58
2023/07/14 03:07:28;;;;;;;2.67;1.00;;;;;;;15.01;53.49;100136.84;10433723;28;20051;-58
2023/07/14 03:12:30;;;;;;;2.05;1.10;;;;;;;15.00;53.55;100140.47;10429144;28;20546;-58
2023/07/14 03:17:33;;;;;;;1.90;1.00;;;;;;;14.97;53.45;100136.25;10429136;28;20568;-58
2023/07/14 03:22:35;;;;;;;2.47;0.90;;;;;;;14.83;53.60;100143.50;10428023;28;20095;-58
2023/07/14 03:27:38;;;;;;;1.00;0.90;;;;;;;14.24;54.22;100139.91;10427664;28;20045;-58
2023/07/14 03:32:40;;;;;;;1.30;0.90;;;;;;;14.28;54.73;100141.38;10429483;28;20201;-58
2023/07/14 03:37:42;;;;;;;1.45;1.30;;;;;;;14.26;54.85;100143.28;10428029;28;20552;-58
2023/07/14 03:42:44;;;;;;;1.45;1.00;;;;;;;14.34;55.04;100147.03;10428541;28;20081;-58
2023/07/14 03:47:46;;;;;;;1.33;1.00;;;;;;;14.41;54.71;100140.38;10429306;28;20052;-58
2023/07/14 03:52:49;;;;;;;1.30;0.90;;;;;;;14.20;55.09;100131.41;10424925;28;20123;-58
2023/07/14 03:57:51;;;;;;;0.95;0.90;;;;;;;14.48;54.95;100136.34;10418650;28;20045;-58
2023/07/14 04:03:04;;;;;;;2.25;0.90;;;;;;;14.65;54.68;100129.06;10426789;28;20489;-58
2023/07/14 04:08:06;;;;;;;1.48;0.82;;;;;;;14.75;54.53;100130.06;10427732;28;20040;-58
2023/07/14 04:13:10;;;;;;;3.80;1.75;;;;;;;14.91;54.43;100125.31;10428360;28;20079;-58
2023/07/14 04:18:13;;;;;;;1.30;1.00;;;;;;;14.98;53.90;100126.56;10425615;28;20131;-57
2023/07/14 04:23:17;;;;;;;1.92;0.95;;;;;;;15.74;53.14;100121.56;10426514;28;20053;-59
2023/07/14 04:28:19;;;;;;;1.27;1.15;;;;;;;17.26;50.87;100111.66;10427571;28;20539;-59
2023/07/14 04:33:22;;;;;;;1.65;0.98;;;;;;;18.99;47.85;100103.28;10427124;28;20059;-58
2023/07/14 04:38:24;;;;;;;1.65;1.08;;;;;;;20.73;44.85;100089.19;10425252;28;20134;-58
2023/07/14 04:43:27;;;;;;;1.00;0.90;;;;;;;22.49;42.08;100080.59;10426870;28;20099;-58
2023/07/14 04:48:29;;;;;;;1.10;0.88;;;;;;;22.94;40.88;100081.00;10425963;28;20053;-59
2023/07/14 04:53:31;;;;;;;0.98;0.98;;;;;;;24.03;39.29;100080.25;10428029;28;20140;-60
2023/07/14 04:58:33;;;;;;;1.42;1.15;;;;;;;23.10;39.40;100077.47;10423017;28;20067;-59
2023/07/14 05:03:35;;;;;;;0.80;0.80;;;;;;;23.45;39.26;100082.47;10424405;28;20052;-60
2023/07/14 05:08:37;;;;;;;1.67;0.90;;;;;;;24.49;37.53;100072.34;10406546;28;20048;-59
2023/07/14 05:13:40;;;;;;;1.15;0.90;;;;;;;25.21;36.32;100068.25;10426298;28;20135;-59
2023/07/14 05:18:42;;;;;;;3.40;0.77;;;;;;;26.01;35.15;100071.94;10425176;28;20404;-59
2023/07/14 05:23:44;;;;;;;1.02;0.73;;;;;;;27.18;33.72;100057.06;10409589;28;20063;-59
2023/07/14 05:28:46;;;;;;;0.90;0.90;;;;;;;28.02;32.49;100055.09;10423381;28;20124;-59
2023/07/14 05:33:48;;;;;;;1.67;1.17;;;;;;;26.64;32.72;100064.00;10425568;28;20136;-59
2023/07/14 05:38:50;;;;;;;1.95;1.20;;;;;;;24.36;35.13;100069.41;10424502;28;20450;-59
2023/07/14 05:43:52;;;;;;;3.95;0.95;;;;;;;22.72;37.21;100065.59;10424430;28;20110;-59
2023/07/14 05:48:54;;;;;;;5.38;1.13;;;;;;;21.60;38.88;100066.91;10425835;28;20091;-59
2023/07/14 05:53:56;;;;;;;3.47;1.00;;;;;;;21.26;39.75;100074.00;10423895;28;20549;-59
2023/07/14 05:58:58;;;;;;;1.90;0.90;;;;;;;20.89;40.34;100076.03;10424545;28;20463;-59
2023/07/14 06:04:00;;;;;;;1.92;1.00;;;;;;;20.66;41.20;100067.69;10424887;28;20037;-59
2023/07/14 06:09:03;;;;;;;2.88;2.05;;;;;;;20.43;41.11;100066.47;10421694;28;20049;-58
2023/07/14 06:14:05;;;;;;;1.33;1.10;;;;;;;20.07;41.67;100065.56;10424621;28;20055;-58
2023/07/14 06:19:07;;;;;;;2.70;1.30;;;;;;;20.02;42.01;100061.69;10420790;28;20048;-58
2023/07/14 06:24:09;;;;;;;1.98;1.08;;;;;;;19.80;42.59;100057.59;10390940;28;20103;-58
2023/07/14 06:29:12;;;;;;;1.58;1.10;;;;;;;20.14;42.45;100045.41;10423623;28;20124;-59
2023/07/14 06:34:14;;;;;;;2.08;1.05;;;;;;;20.05;42.37;100048.16;10426752;28;20828;-59
2023/07/14 06:39:17;;;;;;;4.65;1.13;;;;;;;19.44;43.34;100040.72;10429436;28;20049;-59
2023/07/14 06:44:19;;;;;;;2.30;1.05;;;;;;;19.56;43.50;100033.41;10431627;28;20494;-58
2023/07/14 06:49:27;;;;;;;2.55;0.95;;;;;;;19.77;43.12;100031.34;10431465;28;20056;-58
2023/07/14 06:54:30;;;;;;;1.00;0.75;;;;;;;20.05;42.72;100029.56;10429499;28;20048;-59
2023/07/14 06:59:32;;;;;;;3.30;1.20;;;;;;;20.15;42.50;100025.81;10430748;28;20045;-58
2023/07/14 07:04:35;;;;;;;2.80;1.20;;;;;;;20.49;42.48;100027.81;10427965;28;20227;-58
2023/07/14 07:09:37;;;;;;;2.22;1.17;;;;;;;20.74;42.21;100017.28;10428602;28;20527;-58
2023/07/14 07:14:39;;;;;;;2.15;1.13;;;;;;;21.34;41.41;100009.38;10428505;28;20141;-58
2023/07/14 07:19:41;;;;;;;1.45;0.90;;;;;;;21.71;41.07;100004.56;10429270;28;20060;-58
2023/07/14 07:24:43;;;;;;;1.40;0.82;;;;;;;22.33;39.95;99997.94;10427681;28;20211;-58
2023/07/14 07:29:45;;;;;;;1.52;1.08;;;;;;;22.93;39.18;99987.78;10428971;28;20111;-58
2023/07/14 07:34:47;;;;;;;2.58;1.10;;;;;;;23.92;37.51;99984.44;10420322;28;20060;-58
2023/07/14 07:39:53;;;;;;;0.88;0.70;;;;;;;25.41;36.48;99975.69;10424507;28;20122;-59
2023/07/14 07:44:58;;;;;;;2.75;1.17;;;;;;;26.45;34.31;99957.31;10425161;28;20187;-59
2023/07/14 07:50:01;;;;;;;2.30;1.10;;;;;;;26.95;33.74;99953.63;10412861;28;20140;-59
2023/07/14 07:55:04;;;;;;;2.35;1.10;;;;;;;27.45;31.70;99937.19;10423886;28;20052;-59
2023/07/14 08:00:11;;;;;;;2.13;0.80;;;;;;;27.82;31.54;99922.47;10422800;28;20037;-59
2023/07/14 08:05:17;;;;;;;0.70;0.70;;;;;;;28.13;31.32;99920.06;10426435;28;20044;-60
2023/07/14 08:10:19;;;;;;;2.05;0.80;;;;;;;27.84;31.11;99923.09;10423113;28;20136;-60
2023/07/14 08:15:21;;;;;;;3.85;0.88;;;;;;;28.47;30.61;99917.22;10423676;28;20487;-60
2023/07/14 08:20:23;;;;;;;1.73;0.95;;;;;;;27.81;30.71;99915.47;10424028;28;20072;-60
2023/07/14 08:25:25;;;;;;;1.95;0.80;;;;;;;27.75;30.91;99913.59;10412632;28;20076;-60
2023/07/14 08:30:29;;;;;;;1.73;1.00;;;;;;;27.52;30.50;99913.06;10419366;28;20047;-60
2023/07/14 08:35:31;;;;;;;3.40;1.35;;;;;;;27.29;30.44;99911.53;10423455;28;20427;-60
2023/07/14 08:40:41;;;;;;;1.38;0.82;;;;;;;27.19;30.11;99913.75;10421861;28;20124;-60
2023/07/14 08:46:07;;;;;;;1.85;0.98;;;;;;;26.77;29.48;99913.88;10422032;28;20063;-60
2023/07/14 08:51:25;;;;;;;1.38;0.88;;;;;;;27.26;29.49;99906.53;10434965;28;20061;-60
2023/07/14 08:56:31;;;;;;;1.35;0.77;;;;;;;27.31;29.47;99895.19;10405811;28;20045;-61
2023/07/14 09:01:50;;;;;;;2.55;0.93;;;;;;;28.25;28.42;99886.16;10417625;28;20665;-60
2023/07/14 09:06:53;;;;;;;1.92;0.80;;;;;;;29.04;28.34;99881.56;10420690;28;20231;-60
2023/07/14 09:11:58;;;;;;;1.83;1.10;;;;;;;29.56;27.11;99875.16;10416411;28;20731;-61
2023/07/14 09:17:09;;;;;;;0.98;0.60;;;;;;;30.17;26.89;99862.72;10412747;28;20309;-61
2023/07/14 09:22:18;;;;;;;2.08;0.90;;;;;;;29.39;25.83;99865.91;10411362;28;20052;-61
2023/07/14 09:27:26;;;;;;;1.33;0.68;;;;;;;28.51;27.47;99861.97;10411674;28;20048;-61
2023/07/14 09:32:39;;;;;;;1.48;0.80;;;;;;;27.76;27.90;99851.56;10405288;28;20732;-61
2023/07/14 09:37:53;;;;;;;1.35;0.75;;;;;;;27.12;28.61;99859.13;10419651;28;20392;-60
2023/07/14 09:42:59;;;;;;;1.00;0.70;;;;;;;26.68;29.45;99861.38;10417214;28;20075;-61
2023/07/14 09:48:22;;;;;;;3.88;1.10;;;;;;;26.92;28.88;99860.06;10418416;28;20557;-61
2023/07/14 09:53:24;;;;;;;0.68;0.68;;;;;;;27.56;28.60;99844.47;10418596;28;20045;-61
2023/07/14 09:58:30;;;;;;;2.08;0.70;;;;;;;27.81;28.02;99854.47;10419742;28;20132;-61
2023/07/14 10:03:47;;;;;;;1.25;0.80;;;;;;;27.89;27.94;99846.19;10419462;28;20044;-61
2023/07/14 10:08:52;;;;;;;1.15;0.90;;;;;;;27.46;28.31;99840.28;10423510;28;20055;-61
2023/07/14 10:14:17;;;;;;;1.80;1.10;;;;;;;27.30;27.93;99839.84;10426344;28;20421;-60
2023/07/14 10:19:32;;;;;;;1.80;0.88;;;;;;;27.23;28.44;99836.28;10425827;28;20571;-60
2023/07/14 10:24:35;;;;;;;1.77;0.80;;;;;;;27.35;28.12;99827.47;10424654;28;20124;-61
2023/07/14 10:29:46;;;;;;;0.90;0.80;;;;;;;27.57;26.87;99820.06;10428028;28;20044;-61
2023/07/14 10:34:57;;;;;;;1.25;0.90;;;;;;;27.69;27.13;99813.06;10425842;28;20416;-61
2023/07/14 10:40:17;;;;;;;1.08;0.82;;;;;;;28.07;26.12;99807.97;10424939;28;20060;-60
2023/07/14 10:45:20;;;;;;;4.17;1.47;;;;;;;27.67;26.76;99808.94;10422161;28;20056;-61
2023/07/14 10:50:31;;;;;;;1.13;0.68;;;;;;;27.85;26.29;99803.81;10424846;28;20139;-60
2023/07/14 10:55:36;;;;;;;0.63;0.60;;;;;;;27.74;26.30;99793.69;10440752;28;20047;-60
2023/07/14 11:00:51;;;;;;;0.88;0.88;;;;;;;27.93;25.84;99792.88;10427007;28;20056;-60
2023/07/14 11:06:02;;;;;;;1.95;0.73;;;;;;;27.82;26.15;99780.88;10422978;28;20036;-60
2023/07/14 11:11:32;;;;;;;0.77;0.50;;;;;;;27.81;25.22;99779.19;10421805;28;20048;-60
2023/07/14 11:16:56;;;;;;;2.85;0.70;;;;;;;28.00;25.75;99778.38;10426347;28;20102;-60
2023/07/14 11:22:14;;;;;;;0.55;0.55;;;;;;;28.34;26.07;99769.25;10423810;28;20053;-60
2023/07/14 11:27:37;;;;;;;2.40;1.00;;;;;;;28.22;25.83;99766.38;10423215;28;20067;-59
2023/07/14 11:32:51;;;;;;;2.33;0.60;;;;;;;28.58;25.59;99751.63;10423199;28;20061;-59
2023/07/14 11:38:01;;;;;;;0.73;0.65;;;;;;;28.82;25.03;99735.59;10423923;28;20443;-59
2023/07/14 11:43:04;;;;;;;1.10;0.70;;;;;;;28.85;24.90;99708.28;10425475;28;20136;-59
2023/07/14 11:48:23;;;;;;;3.58;0.90;;;;;;;28.83;24.49;99667.25;10416868;28;20683;-59
2023/07/14 11:53:25;;;;;;;1.73;1.23;;;;;;;29.07;25.22;99663.00;10420596;28;20211;-59
2023/07/14 11:58:28;;;;;;;1.13;0.80;;;;;;;29.68;24.47;99671.25;10421134;28;20517;-59
2023/07/14 12:03:41;;;;;;;19.33;1.05;;;;;;;29.69;24.71;99672.91;10403314;28;20437;-59
2023/07/14 12:09:11;;;;;;;1.05;0.70;;;;;;;29.37;24.38;99673.97;10419649;28;20171;-59
2023/07/14 12:14:36;;;;;;;2.88;0.82;;;;;;;29.08;24.37;99670.03;10419544;28;20052;-60
2023/07/14 12:19:53;;;;;;;1.38;0.88;;;;;;;28.99;25.12;99668.66;10412130;28;20405;-59
2023/07/14 12:24:56;;;;;;;0.77;0.60;;;;;;;29.16;25.21;99674.31;10420453;28;20048;-59
2023/07/14 12:30:31;;;;;;;2.42;0.70;;;;;;;29.46;24.57;99662.72;10423027;28;20375;-59
2023/07/14 12:35:37;;;;;;;2.53;0.90;;;;;;;29.00;24.60;99646.06;10417607;28;21495;-59
2023/07/14 12:40:44;;;;;;;1.67;0.98;;;;;;;29.20;24.68;99630.56;10425378;28;20037;-59
2023/07/14 12:45:46;;;;;;;2.08;0.65;;;;;;;29.02;25.66;99617.88;10425468;28;20060;-59
2023/07/14 12:50:48;;;;;;;1.40;0.90;;;;;;;29.01;25.58;99618.91;10420998;28;20284;-60
2023/07/14 12:55:50;;;;;;;5.03;1.15;;;;;;;29.32;25.13;99601.06;10422149;28;20496;-59
2023/07/14 13:00:54;;;;;;;1.35;0.88;;;;;;;29.60;24.30;99598.78;10425898;28;20045;-59
2023/07/14 13:05:59;;;;;;;11.48;1.48;;;;;;;29.02;24.81;99588.25;10427567;28;20076;-59
2023/07/14 13:11:05;;;;;;;1.48;0.88;;;;;;;28.95;24.88;99595.53;10424730;28;20468;-59
2023/07/14 13:16:11;;;;;;;6.35;1.15;;;;;;;28.53;25.69;99580.06;10427208;28;20071;-59
2023/07/14 13:21:32;;;;;;;0.98;0.80;;;;;;;28.69;25.12;99565.25;10426324;28;20218;-59
2023/07/14 13:27:05;;;;;;;1.58;0.60;;;;;;;28.82;24.68;99551.72;10426204;28;20072;-60
2023/07/14 13:32:22;;;;;;;1.77;1.13;;;;;;;28.83;24.63;99554.19;10424472;28;20055;-59
2023/07/14 13:37:26;;;;;;;1.52;0.88;;;;;;;28.47;24.90;99542.44;10422292;28;20124;-59
2023/07/14 13:42:33;;;;;;;3.28;0.82;;;;;;;28.23;25.24;99527.84;10425552;28;20049;-59
2023/07/14 13:47:51;;;;;;;2.25;1.33;;;;;;;28.46;24.89;99530.03;10432765;28;20111;-59
2023/07/14 13:52:53;;;;;;;4.05;1.00;;;;;;;27.90;24.88;99529.84;10430869;28;20045;-59
2023/07/14 13:57:55;;;;;;;1.25;0.90;;;;;;;28.15;24.96;99510.09;10429882;28;20457;-59
2023/07/14 14:03:00;;;;;;;2.60;0.90;;;;;;;28.40;24.96;99510.19;10433295;28;20061;-59
2023/07/14 14:08:03;;;;;;;2.00;0.90;;;;;;;29.00;24.41;99506.88;10422639;28;20045;-59
2023/07/14 14:13:05;;;;;;;1.10;0.75;;;;;;;28.85;23.66;99487.53;10432203;28;20060;-59
2023/07/14 14:18:20;;;;;;;2.15;1.08;;;;;;;28.97;23.42;99488.44;10433808;28;20135;-59
2023/07/14 14:23:22;;;;;;;1.63;0.90;;;;;;;28.74;23.37;99482.00;10430295;28;20172;-59
2023/07/14 14:28:25;;;;;;;1.23;0.95;;;;;;;28.71;23.83;99463.59;10433375;28;20143;-59
2023/07/14 14:33:30;;;;;;;2.75;0.90;;;;;;;28.87;23.78;99463.91;10433418;28;20110;-59
2023/07/14 14:38:34;;;;;;;1.88;0.80;;;;;;;28.99;23.56;99462.13;10431461;28;20408;-59
2023/07/14 14:43:39;;;;;;;1.30;0.77;;;;;;;29.11;23.00;99446.09;10432122;28;20043;-59
2023/07/14 14:48:40;;;;;;;3.30;0.98;;;;;;;28.87;22.90;99436.97;10433308;28;20538;-59
2023/07/14 14:53:43;;;;;;;1.42;1.00;;;;;;;28.63;23.05;99437.78;10430026;28;20052;-59
2023/07/14 14:58:45;;;;;;;2.22;1.00;;;;;;;28.65;23.64;99427.63;10429865;28;20522;-59
2023/07/14 15:03:48;;;;;;;3.90;1.00;;;;;;;28.60;23.06;99422.09;10431794;28;20045;-59
2023/07/14 15:08:51;;;;;;;2.50;1.10;;;;;;;28.98;23.29;99416.59;10431154;28;20049;-59
2023/07/14 15:13:54;;;;;;;4.00;1.00;;;;;;;29.43;23.03;99414.47;10427155;28;20052;-60
2023/07/14 15:18:56;;;;;;;2.83;1.10;;;;;;;29.41;23.30;99403.94;10431570;28;20061;-59
2023/07/14 15:23:59;;;;;;;1.50;0.90;;;;;;;29.17;23.38;99403.97;10429589;28;20063;-59
2023/07/14 15:29:02;;;;;;;1.50;0.90;;;;;;;29.37;23.41;99377.63;10429959;28;20049;-60
2023/07/14 15:34:11;;;;;;;3.08;1.25;;;;;;;29.53;23.27;99361.69;10430205;28;20053;-59
2023/07/14 15:39:14;;;;;;;4.22;1.40;;;;;;;29.86;23.39;99363.94;10431114;28;21019;-59
2023/07/14 15:44:20;;;;;;;3.80;1.30;;;;;;;29.72;23.35;99365.19;10429805;28;20532;-60
2023/07/14 15:49:25;;;;;;;3.10;1.50;;;;;;;30.12;22.98;99352.78;10430335;28;20141;-59
2023/07/14 15:54:31;;;;;;;29.40;3.05;;;;;;;29.44;23.10;99341.50;10429356;28;20068;-59
2023/07/14 15:59:33;;;;;;;3.83;1.20;;;;;;;29.39;23.28;99338.69;10428414;28;20400;-59
2023/07/14 16:04:36;;;;;;;1.73;1.17;;;;;;;29.33;23.68;99327.94;10426967;28;20045;-59
2023/07/14 16:09:39;;;;;;;15.65;2.33;;;;;;;29.13;23.83;99320.13;10430012;28;20057;-60
2023/07/14 16:14:42;;;;;;;2.92;1.00;;;;;;;28.77;24.43;99307.44;10425565;28;20499;-59
2023/07/14 16:19:44;;;;;;;1.95;1.00;;;;;;;29.29;24.31;99299.81;10424365;28;20053;-59
2023/07/14 16:24:47;;;;;;;1.35;0.90;;;;;;;29.23;24.07;99300.72;10423195;28;20041;-59
2023/07/14 16:29:50;;;;;;;2.90;1.10;;;;;;;29.02;24.42;99297.47;10441846;28;20037;-59
2023/07/14 16:34:52;;;;;;;1.42;0.82;;;;;;;28.80;24.26;99285.47;10428541;28;20354;-59
2023/07/14 16:39:54;;;;;;;1.27;0.93;;;;;;;28.49;24.42;99277.53;10423882;28;20037;-59
2023/07/14 16:44:56;;;;;;;1.35;1.00;;;;;;;28.44;24.46;99273.88;10420738;28;20051;-59
2023/07/14 16:50:01;;;;;;;3.65;1.30;;;;;;;28.71;24.26;99259.91;10425019;28;20138;-59
2023/07/14 16:55:19;;;;;;;1.52;1.02;;;;;;;28.72;23.45;99266.09;10425161;28;20049;-60
2023/07/14 17:00:28;;;;;;;1.90;1.10;;;;;;;28.71;22.87;99259.06;10424077;28;20132;-59
2023/07/14 17:05:34;;;;;;;1.98;1.23;;;;;;;28.49;22.99;99249.78;10426916;28;20195;-59
2023/07/14 17:10:36;;;;;;;1.30;0.90;;;;;;;28.42;23.15;99251.75;10425579;28;20132;-60
2023/07/14 17:15:38;;;;;;;2.38;1.10;;;;;;;28.48;23.42;99238.22;10424347;28;20067;-59
2023/07/14 17:20:40;;;;;;;3.50;1.13;;;;;;;28.52;23.27;99239.44;10424282;28;20077;-59
2023/07/14 17:25:42;;;;;;;1.98;1.10;;;;;;;28.42;23.56;99231.03;10423025;28;20420;-60
2023/07/14 17:30:48;;;;;;;2.10;1.00;;;;;;;28.58;23.68;99222.41;10425469;28;20060;-59
2023/07/14 17:35:54;;;;;;;1.38;1.08;;;;;;;28.34;23.97;99235.91;10420707;28;20053;-60
2023/07/14 17:40:56;;;;;;;1.20;0.80;;;;;;;28.30;23.80;99234.69;10422243;28;20040;-59
2023/07/14 17:45:58;;;;;;;1.15;0.85;;;;;;;28.30;23.71;99234.69;10404393;28;20090;-59
2023/07/14 17:51:02;;;;;;;1.45;0.73;;;;;;;28.15;23.90;99243.09;10408381;28;20044;-59
2023/07/14 17:56:04;;;;;;;2.35;1.05;;;;;;;27.77;24.26;99232.44;10410480;28;20535;-60
2023/07/14 18:01:13;;;;;;;0.98;0.85;;;;;;;27.52;24.66;99246.88;10419503;28;20391;-60
2023/07/14 18:06:20;;;;;;;0.95;0.85;;;;;;;27.25;25.11;99230.09;10399281;28;20154;-60
2023/07/14 18:11:24;;;;;;;2.05;0.75;;;;;;;27.12;25.08;99236.31;10420005;28;20036;-59
2023/07/14 18:16:27;;;;;;;0.88;0.80;;;;;;;27.00;25.17;99234.50;10415449;28;20750;-59
2023/07/14 18:21:29;;;;;;;2.30;1.08;;;;;;;26.95;25.21;99235.19;10421913;28;20135;-59
2023/07/14 18:26:31;;;;;;;2.00;1.00;;;;;;;26.96;25.67;99236.81;10419755;28;20041;-59
2023/07/14 18:31:33;;;;;;;1.20;0.80;;;;;;;26.76;26.02;99241.44;10421976;28;20045;-60
2023/07/14 18:36:35;;;;;;;1.83;0.80;;;;;;;26.58;26.37;99233.25;10422637;28;20664;-60
2023/07/14 18:41:39;;;;;;;1.55;0.85;;;;;;;26.45;26.83;99236.75;10426061;28;20037;-60
2023/07/14 18:46:42;;;;;;;1.83;0.90;;;;;;;26.26;27.40;99239.47;10401052;28;20053;-60
2023/07/14 18:51:44;;;;;;;4.65;1.00;;;;;;;25.98;27.49;99233.53;10410926;28;20774;-60
2023/07/14 18:56:47;;;;;;;3.63;1.10;;;;;;;25.75;27.84;99234.72;10423261;28;20135;-60
2023/07/14 19:01:51;;;;;;;1.05;0.90;;;;;;;25.53;27.96;99243.97;10420565;28;20048;-59
2023/07/14 19:06:55;;;;;;;1.67;0.80;;;;;;;25.27;28.32;99235.88;10422987;28;20132;-60
2023/07/14 19:11:58;;;;;;;1.20;0.80;;;;;;;25.26;28.47;99231.56;10423208;28;20540;-60
2023/07/14 19:17:00;;;;;;;5.57;1.05;;;;;;;24.95;28.67;99228.56;10421828;28;20147;-60
2023/07/14 19:22:03;;;;;;;1.45;1.10;;;;;;;24.85;29.14;99228.94;10422887;28;20041;-60
2023/07/14 19:27:13;;;;;;;1.70;0.98;;;;;;;24.83;29.78;99224.81;10422599;28;20057;-60
2023/07/14 19:32:15;;;;;;;2.05;1.17;;;;;;;24.77;29.40;99225.63;10425010;28;20052;-60
2023/07/14 19:37:19;;;;;;;1.08;0.90;;;;;;;24.63;29.53;99231.91;10419823;28;20053;-59
2023/07/14 19:42:22;;;;;;;4.35;0.90;;;;;;;24.56;29.81;99231.88;10422465;28;20041;-60
2023/07/14 19:47:24;;;;;;;1.98;1.10;;;;;;;24.34;30.25;99237.47;10425244;28;20043;-60
2023/07/14 19:52:26;;;;;;;0.80;0.80;;;;;;;23.91;31.05;99240.25;10427881;28;20052;-60
2023/07/14 19:57:28;;;;;;;1.58;0.90;;;;;;;23.76;31.76;99242.16;10424494;28;20095;-60
2023/07/14 20:02:44;;;;;;;1.55;0.90;;;;;;;23.51;32.11;99235.59;10422122;28;20029;-60
2023/07/14 20:07:50;;;;;;;1.45;0.93;;;;;;;23.20;31.54;99240.34;10422317;28;20056;-60
2023/07/14 20:12:53;;;;;;;2.25;1.00;;;;;;;23.12;31.81;99232.47;10424330;28;20029;-59
2023/07/14 20:17:55;;;;;;;2.00;1.00;;;;;;;23.04;31.86;99236.06;10418065;28;20053;-60
2023/07/14 20:22:57;;;;;;;2.05;1.20;;;;;;;23.17;32.20;99235.38;10420064;28;20076;-59
2023/07/14 20:28:00;;;;;;;1.30;0.80;;;;;;;23.02;32.41;99234.59;10422030;28;20052;-60
2023/07/14 20:33:02;;;;;;;2.80;1.00;;;;;;;22.81;32.98;99245.22;10425938;28;20045;-60
2023/07/14 20:38:14;;;;;;;0.85;0.77;;;;;;;22.74;33.62;99244.31;10420820;28;20779;-60
2023/07/14 20:43:22;;;;;;;2.45;1.00;;;;;;;22.54;33.84;99241.34;10426830;28;20052;-59
2023/07/14 20:48:26;;;;;;;1.75;1.00;;;;;;;22.53;34.31;99237.03;10420472;28;20056;-60
2023/07/14 20:53:29;;;;;;;4.35;1.35;;;;;;;22.59;34.51;99241.63;10425603;28;20044;-60
2023/07/14 20:58:31;;;;;;;1.80;1.10;;;;;;;22.59;34.88;99245.13;10426407;28;20563;-59
2023/07/14 21:03:34;;;;;;;2.25;1.35;;;;;;;22.32;35.55;99229.78;10423463;28;20047;-59
2023/07/14 21:08:36;;;;;;;3.97;1.20;;;;;;;22.14;36.14;99231.97;10418273;28;20128;-60
2023/07/14 21:13:47;;;;;;;3.00;1.15;;;;;;;22.15;37.15;99228.28;10424164;28;20243;-60
2023/07/14 21:18:50;;;;;;;1.42;1.10;;;;;;;22.00;36.52;99227.41;10424696;28;20520;-60
2023/07/14 21:23:52;;;;;;;2.22;0.90;;;;;;;21.89;36.69;99220.69;10426241;28;20065;-59
2023/07/14 21:28:57;;;;;;;1.63;1.00;;;;;;;21.94;37.12;99220.16;10423804;28;20127;-60
2023/07/14 21:33:59;;;;;;;2.15;1.20;;;;;;;21.95;37.01;99237.78;10418667;28;20037;-59
2023/07/14 21:39:01;;;;;;;1.63;1.10;;;;;;;21.77;37.28;99235.44;10422323;28;20048;-59
2023/07/14 21:44:03;;;;;;;1.60;1.10;;;;;;;21.68;37.60;99241.81;10435784;28;20571;-60
2023/07/14 21:49:15;;;;;;;3.38;1.20;;;;;;;21.71;38.14;99240.66;10424539;28;20516;-59
2023/07/14 21:54:17;;;;;;;2.35;1.20;;;;;;;21.77;37.62;99231.94;10418283;28;20140;-59
2023/07/14 21:59:20;;;;;;;1.33;1.00;;;;;;;21.83;37.96;99226.75;10424073;28;20638;-60
2023/07/14 22:04:28;;;;;;;1.45;0.93;;;;;;;21.73;38.11;99226.16;10441401;28;20483;-59
2023/07/14 22:09:31;;;;;;;2.00;0.90;;;;;;;21.56;38.15;99215.81;10427600;28;20416;-60
2023/07/14 22:14:33;;;;;;;1.35;1.02;;;;;;;21.31;38.56;99227.63;10432582;28;20691;-59
2023/07/14 22:19:35;;;;;;;1.58;1.08;;;;;;;21.29;38.68;99226.97;10430721;28;20048;-59
2023/07/14 22:24:38;;;;;;;3.13;1.20;;;;;;;21.09;39.03;99222.09;10430696;28;20045;-59
2023/07/14 22:29:40;;;;;;;2.60;1.00;;;;;;;20.93;39.23;99221.38;10429933;28;20041;-59
2023/07/14 22:34:43;;;;;;;2.38;1.13;;;;;;;20.93;39.15;99219.53;10427713;28;20053;-59
2023/07/14 22:39:45;;;;;;;1.38;1.00;;;;;;;20.83;39.19;99226.06;10430014;28;20072;-59
2023/07/14 22:44:47;;;;;;;2.80;0.95;;;;;;;20.67;39.70;99213.69;10429768;28;20048;-59
2023/07/14 22:49:49;;;;;;;2.38;1.30;;;;;;;20.49;40.16;99210.44;10419095;28;20041;-59
2023/07/14 22:54:51;;;;;;;1.27;1.17;;;;;;;20.36;40.63;99212.78;10422900;28;20528;-59
2023/07/14 22:59:53;;;;;;;1.75;1.08;;;;;;;20.27;40.89;99221.78;10424344;28;20182;-59
2023/07/14 23:04:55;;;;;;;1.35;0.90;;;;;;;20.03;40.78;99214.69;10428145;28;20136;-59
2023/07/14 23:09:57;;;;;;;1.02;0.93;;;;;;;19.98;40.97;99214.38;10431540;28;20041;-59
2023/07/14 23:14:59;;;;;;;3.33;1.58;;;;;;;19.99;41.40;99217.88;10415946;28;20044;-59
2023/07/14 23:20:05;;;;;;;2.42;1.30;;;;;;;19.92;41.43;99212.41;10410733;28;20206;-59
2023/07/14 23:25:18;;;;;;;1.80;1.00;;;;;;;19.56;43.45;99218.19;10410665;28;20610;-59
2023/07/14 23:30:20;;;;;;;1.00;1.00;;;;;;;19.47;42.96;99212.06;10424963;28;20296;-59
2023/07/14 23:35:24;;;;;;;0.95;0.88;;;;;;;19.29;43.16;99209.56;10426955;28;20144;-59